Time;durP1;ratioP1;P1;durP2;ratioP2;P2;SDS_P1;SDS_P2;PMS_P1;PMS_P2;Temp;Humidity;BMP_temperature;BMP_pressure;BME280_temperature;BME280_humidity;BME280_pressure;Samples;Min_cycle;Max_cycle;Signal;HPM_P1;HPM_P2
2023/09/30 00:00:00;;;;;;;17.50;5.82;;;;;;;21.82;39.67;100792.59;5051475;28;20049;-78
2023/09/30 00:02:26;;;;;;;18.35;6.47;;;;;;;21.78;39.64;100784.94;5051419;28;20090;-76
2023/09/30 00:04:52;;;;;;;25.05;6.93;;;;;;;21.78;39.68;100791.28;5032159;28;20469;-78
2023/09/30 00:07:17;;;;;;;21.08;5.78;;;;;;;21.68;39.80;100777.91;5051845;28;20025;-76
2023/09/30 00:09:43;;;;;;;20.73;5.82;;;;;;;21.79;39.68;100792.13;5051505;28;20033;-76
2023/09/30 00:12:08;;;;;;;18.23;6.55;;;;;;;21.59;39.88;100759.88;5051537;28;20036;-77
2023/09/30 00:14:34;;;;;;;27.35;6.82;;;;;;;21.78;39.73;100790.44;5051726;28;20024;-78
2023/09/30 00:16:59;;;;;;;18.75;6.18;;;;;;;21.73;39.75;100779.22;5051586;28;20459;-76
2023/09/30 00:19:26;;;;;;;18.30;6.30;;;;;;;21.68;39.91;100775.16;5051478;28;20064;-76
2023/09/30 00:21:51;;;;;;;27.00;6.53;;;;;;;21.64;40.07;100779.34;5051634;28;20028;-76
2023/09/30 00:24:16;;;;;;;21.65;7.28;;;;;;;21.62;40.16;100775.94;5051350;28;20037;-76
2023/09/30 00:26:42;;;;;;;13.35;6.60;;;;;;;21.63;40.21;100787.72;5051120;28;20025;-77
2023/09/30 00:29:07;;;;;;;29.63;7.03;;;;;;;21.58;40.48;100780.13;5051528;28;20029;-77
2023/09/30 00:31:33;;;;;;;17.23;6.38;;;;;;;21.60;40.41;100778.03;5051236;28;20032;-77
2023/09/30 00:33:59;;;;;;;20.38;6.97;;;;;;;21.61;40.52;100779.72;5051172;28;20029;-76
2023/09/30 00:36:25;;;;;;;16.17;7.05;;;;;;;21.62;40.36;100775.94;5051300;28;20064;-77
2023/09/30 00:38:50;;;;;;;16.65;7.80;;;;;;;21.66;40.43;100777.25;5032319;28;20540;-76
2023/09/30 00:41:16;;;;;;;35.63;6.80;;;;;;;21.62;40.40;100773.19;5051140;28;20412;-77
2023/09/30 00:43:41;;;;;;;29.67;10.15;;;;;;;21.54;40.39;100777.94;5050564;28;20497;-78
2023/09/30 00:46:28;;;;;;;21.10;7.20;;;;;;;21.60;40.48;100783.50;5050975;28;20044;-76
2023/09/30 00:48:56;;;;;;;37.90;7.43;;;;;;;21.54;40.65;100772.47;5050936;28;20104;-76
2023/09/30 00:51:23;;;;;;;32.38;7.88;;;;;;;21.50;40.79;100776.63;5050963;28;20095;-77
2023/09/30 00:53:50;;;;;;;18.23;7.15;;;;;;;21.49;40.98;100784.00;5050586;28;20500;-76
2023/09/30 00:56:18;;;;;;;12.80;6.38;;;;;;;21.55;40.70;100785.13;5050954;28;20074;-76
2023/09/30 00:58:45;;;;;;;14.55;6.85;;;;;;;21.56;41.00;100784.91;5050516;28;20021;-77
2023/09/30 01:01:10;;;;;;;20.88;7.10;;;;;;;21.56;40.70;100776.69;5050379;28;20123;-77
2023/09/30 01:03:37;;;;;;;22.48;7.75;;;;;;;21.56;40.78;100779.44;5049110;28;20112;-77
2023/09/30 01:06:02;;;;;;;23.65;7.15;;;;;;;21.54;40.72;100777.94;5050835;28;20025;-75
2023/09/30 01:08:28;;;;;;;19.35;7.22;;;;;;;21.50;41.22;100777.47;5050129;28;20381;-77
2023/09/30 01:10:55;;;;;;;24.83;7.07;;;;;;;21.48;40.86;100765.03;5050316;28;20032;-76
2023/09/30 01:13:20;;;;;;;14.32;6.10;;;;;;;21.52;40.87;100764.47;5050634;28;20029;-76
2023/09/30 01:15:47;;;;;;;23.75;7.38;;;;;;;21.56;40.90;100773.09;5050479;28;20408;-77
2023/09/30 01:18:12;;;;;;;20.23;7.53;;;;;;;21.52;40.75;100775.41;5050289;28;20029;-76
2023/09/30 01:20:38;;;;;;;22.67;7.05;;;;;;;21.48;41.11;100775.97;5050623;28;20056;-76
2023/09/30 01:23:04;;;;;;;24.83;8.07;;;;;;;21.49;41.00;100778.53;5049988;28;20090;-76
2023/09/30 01:25:30;;;;;;;27.38;8.25;;;;;;;21.48;41.08;100779.56;5050312;28;20393;-77
2023/09/30 01:27:55;;;;;;;22.80;7.97;;;;;;;21.49;40.98;100781.25;5050293;28;20078;-76
2023/09/30 01:30:23;;;;;;;25.17;7.78;;;;;;;21.29;41.09;100751.94;5050269;28;20033;-76
2023/09/30 01:32:48;;;;;;;12.43;6.70;;;;;;;21.47;41.19;100783.31;5050508;28;20090;-77
2023/09/30 01:35:14;;;;;;;18.83;6.68;;;;;;;21.31;41.37;100758.94;5050232;28;20029;-76
2023/09/30 01:37:40;;;;;;;30.73;7.85;;;;;;;21.16;41.59;100749.88;5050661;28;20029;-77
2023/09/30 01:40:10;;;;;;;21.98;7.00;;;;;;;21.40;41.48;100787.03;5049718;28;20094;-76
2023/09/30 01:42:36;;;;;;;25.27;7.38;;;;;;;21.36;41.46;100786.56;5049771;28;20056;-76
2023/09/30 01:45:02;;;;;;;23.10;7.30;;;;;;;21.28;41.64;100783.94;5050295;28;20033;-76
2023/09/30 01:47:27;;;;;;;26.25;6.22;;;;;;;21.25;41.81;100776.13;5049842;28;20048;-76
2023/09/30 01:49:53;;;;;;;19.13;7.00;;;;;;;21.17;41.63;100765.25;5050112;28;20028;-77
2023/09/30 01:52:18;;;;;;;23.58;6.25;;;;;;;21.18;41.81;100766.97;5050086;28;20433;-77
2023/09/30 01:54:44;;;;;;;29.63;7.13;;;;;;;21.24;41.89;100781.75;5050121;28;20404;-75
2023/09/30 01:57:09;;;;;;;15.40;6.40;;;;;;;21.10;41.96;100780.72;5050345;28;20036;-76
2023/09/30 01:59:35;;;;;;;22.48;6.72;;;;;;;21.11;42.21;100785.16;5050153;28;20558;-76
2023/09/30 02:02:02;;;;;;;27.50;6.88;;;;;;;21.10;42.36;100791.66;5065319;28;20028;-75
2023/09/30 02:04:28;;;;;;;25.25;6.85;;;;;;;21.05;42.52;100788.63;5069455;28;20125;-75
2023/09/30 02:06:53;;;;;;;16.17;6.78;;;;;;;20.82;42.60;100755.06;5068572;28;20025;-78
2023/09/30 02:09:18;;;;;;;17.40;6.78;;;;;;;20.89;42.83;100772.38;5071571;28;20021;-78
2023/09/30 02:11:44;;;;;;;27.45;7.78;;;;;;;20.90;43.06;100791.34;5058569;28;20040;-77
2023/09/30 02:14:11;;;;;;;25.23;6.55;;;;;;;20.92;43.10;100793.88;5050479;28;20021;-76
2023/09/30 02:16:40;;;;;;;20.42;7.68;;;;;;;20.92;43.06;100793.88;5050755;28;20040;-76
2023/09/30 02:19:06;;;;;;;25.70;7.13;;;;;;;20.88;43.33;100796.19;5051549;28;20041;-76
2023/09/30 02:21:32;;;;;;;21.73;7.60;;;;;;;20.77;43.27;100773.88;5050463;28;20044;-76
2023/09/30 02:23:57;;;;;;;32.92;7.80;;;;;;;20.86;43.47;100789.16;5050344;28;20037;-76
2023/09/30 02:26:25;;;;;;;16.58;7.20;;;;;;;20.82;43.76;100787.88;5049684;28;20455;-76
2023/09/30 02:28:52;;;;;;;23.55;8.15;;;;;;;20.77;43.66;100784.81;5049746;28;20032;-76
2023/09/30 02:31:17;;;;;;;23.15;7.45;;;;;;;20.52;43.77;100740.50;5049540;28;20515;-76
2023/09/30 02:33:43;;;;;;;24.30;7.18;;;;;;;20.80;43.98;100787.19;5049496;28;20029;-75
2023/09/30 02:36:09;;;;;;;20.98;6.80;;;;;;;20.81;44.07;100799.81;5031530;28;20397;-75
2023/09/30 02:38:38;;;;;;;25.30;7.10;;;;;;;20.75;44.16;100789.63;5049445;28;20029;-75
2023/09/30 02:41:03;;;;;;;23.42;5.95;;;;;;;20.78;44.25;100795.59;5049225;28;20114;-77
2023/09/30 02:43:29;;;;;;;17.65;6.65;;;;;;;20.69;44.26;100787.66;5046659;28;20076;-75
2023/09/30 02:45:55;;;;;;;19.92;6.93;;;;;;;20.62;44.40;100782.94;5049659;28;20127;-75
2023/09/30 02:48:20;;;;;;;12.02;5.57;;;;;;;20.64;44.56;100791.78;5051764;28;20549;-76
2023/09/30 02:50:45;;;;;;;26.52;6.85;;;;;;;20.65;44.63;100787.16;5052993;28;20035;-77
2023/09/30 02:53:13;;;;;;;17.40;7.00;;;;;;;20.53;44.70;100767.66;5053063;28;20443;-76
2023/09/30 02:55:41;;;;;;;16.98;6.30;;;;;;;20.57;44.98;100781.78;5053300;28;20037;-76
2023/09/30 02:58:08;;;;;;;16.45;6.05;;;;;;;20.50;44.99;100784.41;5052792;28;20028;-76
2023/09/30 03:00:35;;;;;;;13.52;5.85;;;;;;;20.31;45.16;100760.34;5053072;28;20120;-76
2023/09/30 03:03:02;;;;;;;18.92;6.47;;;;;;;20.48;45.17;100783.75;5052853;28;20036;-77
2023/09/30 03:05:30;;;;;;;22.60;6.43;;;;;;;20.49;45.50;100792.78;5053050;28;20517;-77
2023/09/30 03:07:56;;;;;;;22.17;6.93;;;;;;;20.27;45.36;100750.84;5053016;28;20036;-77
2023/09/30 03:10:23;;;;;;;30.23;6.65;;;;;;;20.48;45.42;100781.03;5053058;28;20037;-77
2023/09/30 03:12:55;;;;;;;16.45;6.20;;;;;;;20.22;45.53;100745.03;5001853;28;20059;-77
2023/09/30 03:15:21;;;;;;;14.57;5.57;;;;;;;20.43;45.55;100783.44;5052758;28;20606;-76
2023/09/30 03:17:46;;;;;;;18.73;5.70;;;;;;;20.49;45.48;100779.97;5052490;28;20033;-77
2023/09/30 03:20:12;;;;;;;27.55;6.63;;;;;;;20.50;45.56;100778.09;5052377;28;20051;-76
2023/09/30 03:22:42;;;;;;;32.58;6.35;;;;;;;20.39;45.51;100763.00;5052926;28;20064;-75
2023/09/30 03:25:11;;;;;;;32.40;8.63;;;;;;;20.48;45.63;100781.03;5052893;28;20032;-76
2023/09/30 03:27:38;;;;;;;58.15;20.33;;;;;;;20.28;45.80;100747.03;5052638;28;20033;-76
2023/09/30 03:30:08;;;;;;;17.83;6.90;;;;;;;20.46;45.82;100777.63;5052321;28;20074;-76
2023/09/30 03:32:34;;;;;;;22.52;6.32;;;;;;;20.46;45.84;100782.22;5052202;28;20155;-76
2023/09/30 03:35:00;;;;;;;25.83;6.30;;;;;;;20.41;46.05;100777.31;5052673;28;20448;-77
2023/09/30 03:37:27;;;;;;;29.77;7.15;;;;;;;20.46;46.17;100783.06;5033746;28;20040;-77
2023/09/30 03:39:56;;;;;;;23.27;5.75;;;;;;;20.46;46.17;100774.88;5052331;28;20055;-76
2023/09/30 03:42:22;;;;;;;21.60;7.05;;;;;;;20.42;46.16;100759.91;5052080;28;20519;-76
2023/09/30 03:44:48;;;;;;;16.98;5.68;;;;;;;20.42;46.16;100762.66;5052020;28;20052;-76
2023/09/30 03:47:15;;;;;;;23.92;6.05;;;;;;;20.32;46.12;100732.00;5016506;28;20124;-76
2023/09/30 03:49:42;;;;;;;29.40;6.07;;;;;;;20.55;46.05;100775.66;5052205;28;20460;-76
2023/09/30 03:52:08;;;;;;;23.55;6.30;;;;;;;20.41;45.91;100752.75;5051847;28;20072;-75
2023/09/30 03:54:34;;;;;;;27.88;6.07;;;;;;;20.57;46.10;100774.44;5052079;28;20033;-76
2023/09/30 03:57:00;;;;;;;29.13;6.53;;;;;;;20.57;46.21;100771.72;5051813;28;20036;-76
2023/09/30 03:59:26;;;;;;;11.35;5.68;;;;;;;20.59;46.28;100779.72;5051211;28;20152;-76
2023/09/30 04:01:53;;;;;;;23.15;5.72;;;;;;;20.36;46.35;100744.25;5051191;28;20462;-75
2023/09/30 04:04:20;;;;;;;25.27;5.50;;;;;;;20.61;46.29;100775.75;5051199;28;20116;-77
2023/09/30 04:06:47;;;;;;;19.92;5.93;;;;;;;20.61;46.50;100780.38;5051775;28;20036;-76
2023/09/30 04:09:13;;;;;;;19.08;6.32;;;;;;;20.25;46.64;100725.53;5033457;28;20036;-77
2023/09/30 04:11:39;;;;;;;19.73;6.05;;;;;;;20.63;46.84;100778.31;5051457;28;20052;-76
2023/09/30 04:14:07;;;;;;;25.23;5.47;;;;;;;20.59;46.79;100777.84;5051162;28;20028;-75
2023/09/30 04:16:33;;;;;;;20.23;6.57;;;;;;;20.42;47.03;100740.78;5051584;28;20029;-76
2023/09/30 04:19:00;;;;;;;16.92;5.60;;;;;;;20.62;46.97;100772.00;5051338;28;20134;-76
2023/09/30 04:21:27;;;;;;;19.60;5.38;;;;;;;20.66;47.14;100766.16;5051165;28;20037;-76
2023/09/30 04:23:53;;;;;;;25.05;6.38;;;;;;;20.68;46.95;100769.53;5051138;28;20082;-76
2023/09/30 04:26:19;;;;;;;16.60;5.75;;;;;;;20.69;47.13;100765.78;5051366;28;20447;-76
2023/09/30 04:28:44;;;;;;;25.10;6.38;;;;;;;20.22;47.10;100697.72;5051185;28;20025;-76
2023/09/30 04:31:12;;;;;;;16.45;5.95;;;;;;;20.68;47.02;100769.53;5051140;28;20033;-76
2023/09/30 04:33:37;;;;;;;28.00;7.15;;;;;;;20.63;47.04;100754.56;5051310;28;20025;-76
2023/09/30 04:36:03;;;;;;;27.17;6.82;;;;;;;20.71;46.98;100769.16;5051103;28;20028;-76
2023/09/30 04:38:28;;;;;;;28.17;5.40;;;;;;;20.72;46.86;100782.66;5051179;28;20027;-76
2023/09/30 04:40:56;;;;;;;23.30;7.03;;;;;;;20.72;47.10;100770.88;5050676;28;20036;-76
2023/09/30 04:43:21;;;;;;;21.52;6.13;;;;;;;20.67;46.83;100767.88;5050105;28;20103;-76
2023/09/30 04:45:49;;;;;;;13.98;5.70;;;;;;;20.78;47.08;100786.53;5050927;28;20052;-76
2023/09/30 04:48:15;;;;;;;19.08;5.70;;;;;;;20.79;46.90;100780.03;5033172;28;20048;-75
2023/09/30 04:50:41;;;;;;;25.52;6.20;;;;;;;20.72;47.27;100777.19;5050026;28;20449;-77
2023/09/30 04:53:07;;;;;;;29.40;6.07;;;;;;;20.57;47.17;100752.59;5050689;28;20073;-76
2023/09/30 04:55:33;;;;;;;21.98;5.88;;;;;;;20.77;47.37;100776.63;5031887;28;20033;-76
2023/09/30 04:57:58;;;;;;;90.43;9.50;;;;;;;20.78;47.29;100783.78;5050483;28;20032;-76
2023/09/30 05:00:28;;;;;;;27.15;5.90;;;;;;;20.87;47.19;100796.34;5032049;28;20047;-77
2023/09/30 05:02:55;;;;;;;26.42;6.40;;;;;;;20.94;47.20;100789.09;5050709;28;20047;-78
2023/09/30 05:05:21;;;;;;;33.88;6.40;;;;;;;20.95;47.33;100777.09;5032404;28;20032;-78
2023/09/30 05:07:47;;;;;;;33.42;6.15;;;;;;;21.03;47.48;100791.56;5050227;28;20059;-77
2023/09/30 05:10:15;;;;;;;15.18;5.95;;;;;;;20.95;47.45;100771.63;5031740;28;20082;-76
2023/09/30 05:12:45;;;;;;;31.00;5.93;;;;;;;20.95;47.65;100767.03;5050205;28;20036;-76
2023/09/30 05:15:19;;;;;;;46.13;10.07;;;;;;;21.20;47.55;100775.81;5050986;28;20059;-76
2023/09/30 05:17:45;;;;;;;31.33;6.45;;;;;;;21.28;47.67;100800.34;5050089;28;20116;-76
2023/09/30 05:20:12;;;;;;;23.42;7.22;;;;;;;21.12;48.04;100757.63;5050593;28;20118;-77
2023/09/30 05:22:40;;;;;;;28.55;6.43;;;;;;;21.43;47.96;100787.50;5049848;28;20476;-76
2023/09/30 05:25:06;;;;;;;25.92;6.80;;;;;;;21.50;48.06;100799.38;5031606;28;20032;-77
2023/09/30 05:27:32;;;;;;;28.92;6.35;;;;;;;21.35;48.14;100773.91;5050674;28;20021;-78
2023/09/30 05:29:57;;;;;;;23.27;6.65;;;;;;;21.60;47.85;100799.06;5049989;28;20074;-77
2023/09/30 05:32:23;;;;;;;23.27;5.85;;;;;;;21.64;48.31;100803.97;5050461;28;20032;-77
2023/09/30 05:34:48;;;;;;;27.88;6.88;;;;;;;21.69;48.24;100800.66;5050161;28;20025;-78
2023/09/30 05:37:14;;;;;;;22.17;7.78;;;;;;;21.65;48.23;100786.50;5050077;28;20030;-76
2023/09/30 05:39:40;;;;;;;29.83;6.93;;;;;;;21.78;48.41;100801.38;5049539;28;20056;-78
2023/09/30 05:42:06;;;;;;;24.02;7.35;;;;;;;21.75;48.57;100774.38;5050127;28;20045;-80
2023/09/30 05:44:32;;;;;;;32.63;7.57;;;;;;;21.90;48.53;100794.38;5032101;28;20049;-76
2023/09/30 05:46:59;;;;;;;20.25;7.60;;;;;;;21.96;48.74;100793.59;5049960;28;20695;-77
2023/09/30 05:49:25;;;;;;;28.00;6.93;;;;;;;22.05;48.94;100800.66;5049676;28;20043;-79
2023/09/30 05:51:51;;;;;;;36.25;8.48;;;;;;;22.10;48.96;100803.69;5014088;28;20394;-77
2023/09/30 05:54:16;;;;;;;40.28;7.72;;;;;;;22.17;49.41;100804.56;5049738;28;20040;-77
2023/09/30 05:56:45;;;;;;;27.00;9.40;;;;;;;22.24;49.27;100806.34;5049863;28;20378;-77
2023/09/30 05:59:10;;;;;;;36.97;11.90;;;;;;;22.11;49.70;100764.25;5049618;28;20590;-78
2023/09/30 06:01:35;;;;;;;22.23;6.32;;;;;;;22.40;48.81;100807.97;5049378;28;20111;-77
2023/09/30 06:04:02;;;;;;;23.20;8.23;;;;;;;22.41;48.80;100809.69;5052460;28;20028;-77
2023/09/30 06:06:30;;;;;;;17.73;6.22;;;;;;;22.41;48.97;100815.16;5069899;28;20020;-76
2023/09/30 06:08:59;;;;;;;37.03;7.82;;;;;;;22.43;49.09;100817.69;5069996;28;20116;-76
2023/09/30 06:11:28;;;;;;;25.13;6.22;;;;;;;22.22;48.85;100780.19;5070314;28;20116;-78
2023/09/30 06:14:00;;;;;;;27.38;8.25;;;;;;;22.47;48.89;100808.88;5069324;28;20060;-77
2023/09/30 06:16:27;;;;;;;43.35;7.65;;;;;;;22.55;48.86;100807.88;5033826;28;20194;-79
2023/09/30 06:18:53;;;;;;;27.67;7.43;;;;;;;22.65;48.71;100806.53;5051926;28;20032;-78
2023/09/30 06:21:20;;;;;;;21.88;7.18;;;;;;;22.68;48.62;100811.63;5050362;28;20404;-78
2023/09/30 06:23:47;;;;;;;27.58;8.38;;;;;;;22.74;48.64;100804.50;5053405;28;20060;-76
2023/09/30 06:26:13;;;;;;;21.60;7.07;;;;;;;22.78;48.44;100806.63;5053864;28;20056;-77
2023/09/30 06:28:40;;;;;;;25.02;8.30;;;;;;;22.83;48.69;100797.81;5053258;28;20131;-78
2023/09/30 06:31:10;;;;;;;15.75;7.38;;;;;;;22.91;48.69;100805.03;5001582;28;20421;-78
2023/09/30 06:33:38;;;;;;;23.02;9.05;;;;;;;22.88;48.58;100787.06;5053132;28;20055;-77
2023/09/30 06:36:13;;;;;;;41.42;7.93;;;;;;;22.96;48.31;100802.53;5052758;28;20033;-76
2023/09/30 06:38:39;;;;;;;26.35;7.85;;;;;;;22.96;48.08;100791.56;5053366;28;20036;-78
2023/09/30 06:41:05;;;;;;;30.30;10.93;;;;;;;22.99;47.70;100796.66;5053109;28;20029;-77
2023/09/30 06:43:32;;;;;;;54.97;10.40;;;;;;;23.03;47.29;100776.81;5052000;28;20572;-78
2023/09/30 06:45:57;;;;;;;36.67;10.50;;;;;;;23.24;47.41;100806.91;5052375;28;20508;-78
2023/09/30 06:48:23;;;;;;;50.03;12.70;;;;;;;23.31;47.21;100798.72;5034038;28;20041;-78
2023/09/30 06:50:49;;;;;;;24.05;10.00;;;;;;;23.33;46.28;100788.41;5052283;28;20028;-80
2023/09/30 06:53:21;;;;;;;27.92;10.40;;;;;;;23.47;46.01;100795.69;5052811;28;20025;-80
2023/09/30 06:55:47;;;;;;;53.40;13.65;;;;;;;23.33;45.53;100774.69;5053089;28;20032;-77
2023/09/30 06:58:13;;;;;;;40.53;11.43;;;;;;;23.53;45.43;100811.34;5053196;28;20138;-77
2023/09/30 07:00:41;;;;;;;41.33;10.00;;;;;;;23.59;45.30;100809.66;5052489;28;20027;-79
2023/09/30 07:03:09;;;;;;;31.42;9.25;;;;;;;23.54;44.96;100802.06;5052202;28;20086;-78
2023/09/30 07:05:35;;;;;;;31.02;9.50;;;;;;;23.54;45.05;100807.56;5052326;28;20513;-75
2023/09/30 07:08:01;;;;;;;41.05;12.90;;;;;;;23.60;44.78;100806.72;5052592;28;20516;-78
2023/09/30 07:10:27;;;;;;;32.78;11.50;;;;;;;23.62;45.11;100806.50;5052905;28;20029;-78
2023/09/30 07:12:52;;;;;;;40.58;10.52;;;;;;;23.82;45.30;100810.19;5052462;28;20110;-77
2023/09/30 07:15:18;;;;;;;28.90;8.25;;;;;;;23.93;45.38;100811.47;5052786;28;20044;-78
2023/09/30 07:17:45;;;;;;;27.50;8.55;;;;;;;24.08;44.81;100809.41;5052182;28;20037;-77
2023/09/30 07:20:11;;;;;;;35.55;10.80;;;;;;;24.16;44.20;100801.84;5052208;28;20745;-78
2023/09/30 07:22:36;;;;;;;37.67;7.70;;;;;;;24.27;43.49;100814.13;5016839;28;20037;-77
2023/09/30 07:25:03;;;;;;;39.88;9.45;;;;;;;24.31;43.50;100813.47;5052692;28;20473;-78
2023/09/30 07:27:29;;;;;;;36.63;9.25;;;;;;;24.38;43.69;100816.25;5052210;28;20039;-77
2023/09/30 07:29:54;;;;;;;37.00;7.65;;;;;;;24.46;43.40;100809.72;5052097;28;20033;-79
2023/09/30 07:32:23;;;;;;;37.90;10.18;;;;;;;24.53;43.57;100803.13;5052028;28;20029;-77
2023/09/30 07:34:48;;;;;;;30.05;8.20;;;;;;;24.68;42.84;100812.03;5052330;28;20063;-78
2023/09/30 07:37:14;;;;;;;28.90;7.88;;;;;;;24.72;42.40;100813.31;5052004;28;20072;-78
2023/09/30 07:39:39;;;;;;;25.73;7.15;;;;;;;24.65;41.87;100790.44;5052738;28;20032;-77
2023/09/30 07:42:05;;;;;;;45.47;9.32;;;;;;;24.86;41.58;100815.00;5053440;28;20033;-78
2023/09/30 07:44:30;;;;;;;24.00;6.97;;;;;;;24.92;41.25;100817.97;5052533;28;20080;-77
2023/09/30 07:46:56;;;;;;;34.67;7.65;;;;;;;24.96;41.12;100819.22;5051887;28;20545;-77
2023/09/30 07:49:21;;;;;;;28.85;7.82;;;;;;;25.05;40.78;100812.44;5052156;28;20030;-78
2023/09/30 07:51:46;;;;;;;26.38;7.22;;;;;;;25.14;40.64;100822.16;5051599;28;20099;-77
2023/09/30 07:54:12;;;;;;;16.98;7.55;;;;;;;25.18;39.98;100815.16;5051649;28;20473;-77
2023/09/30 07:56:38;;;;;;;28.77;7.68;;;;;;;25.14;39.83;100805.63;5051760;28;20032;-76
2023/09/30 07:59:04;;;;;;;33.10;7.75;;;;;;;24.98;40.07;100800.63;5052057;28;20028;-78
2023/09/30 08:01:31;;;;;;;25.95;8.45;;;;;;;25.12;40.17;100827.03;4999629;28;20041;-77
2023/09/30 08:03:56;;;;;;;20.67;7.63;;;;;;;24.98;40.29;100795.09;5051499;28;20095;-77
2023/09/30 08:06:21;;;;;;;24.17;7.40;;;;;;;25.13;40.25;100826.84;5051549;28;20025;-77
2023/09/30 08:08:47;;;;;;;23.75;6.93;;;;;;;25.13;40.22;100826.00;5051691;28;20112;-77
2023/09/30 08:11:12;;;;;;;30.63;9.88;;;;;;;24.71;39.87;100737.31;5051527;28;20707;-77
2023/09/30 08:13:39;;;;;;;17.33;7.07;;;;;;;25.25;39.43;100818.75;5051422;28;20029;-76
2023/09/30 08:16:04;;;;;;;21.23;7.10;;;;;;;25.24;39.02;100811.56;5051075;28;20025;-77
2023/09/30 08:18:30;;;;;;;19.42;7.22;;;;;;;25.32;38.41;100806.66;5051160;28;20043;-77
2023/09/30 08:20:55;;;;;;;37.30;8.00;;;;;;;25.43;38.21;100808.75;5051467;28;20029;-79
2023/09/30 08:23:21;;;;;;;24.27;6.57;;;;;;;25.45;37.54;100808.53;5051192;28;20064;-79
2023/09/30 08:25:46;;;;;;;29.00;7.38;;;;;;;25.45;37.37;100803.88;5032009;28;20037;-78
2023/09/30 08:28:12;;;;;;;31.52;8.10;;;;;;;25.44;37.57;100806.84;5051128;28;20031;-77
2023/09/30 08:30:38;;;;;;;27.38;7.22;;;;;;;25.51;37.94;100785.66;5051188;28;20102;-76
2023/09/30 08:33:03;;;;;;;31.58;7.20;;;;;;;25.75;37.46;100809.69;5050798;28;20028;-77
2023/09/30 08:35:30;;;;;;;40.63;7.82;;;;;;;25.86;37.39;100811.78;5050688;28;20121;-77
2023/09/30 08:37:55;;;;;;;23.55;7.72;;;;;;;25.85;37.38;100785.28;5051017;28;20120;-76
2023/09/30 08:40:21;;;;;;;34.28;9.10;;;;;;;26.04;37.09;100804.66;5050666;28;20468;-78
2023/09/30 08:42:53;;;;;;;76.07;7.60;;;;;;;26.10;36.79;100790.00;5050750;28;20059;-77
2023/09/30 08:45:19;;;;;;;29.17;8.30;;;;;;;26.30;36.73;100801.75;5049701;28;20061;-78
2023/09/30 08:47:50;;;;;;;37.45;7.88;;;;;;;26.43;36.90;100796.16;5051067;28;20044;-78
2023/09/30 08:50:17;;;;;;;20.23;6.63;;;;;;;26.52;36.31;100805.84;5050744;28;20120;-78
2023/09/30 08:52:44;;;;;;;20.05;6.80;;;;;;;26.51;35.85;100802.22;5050538;28;20503;-77
2023/09/30 08:55:11;;;;;;;49.15;9.48;;;;;;;26.55;35.78;100804.53;5050616;28;20047;-78
2023/09/30 08:57:42;;;;;;;19.88;6.97;;;;;;;26.62;34.93;100789.63;5050197;28;20094;-78
2023/09/30 09:00:12;;;;;;;30.65;7.18;;;;;;;26.58;35.01;100782.03;5050556;28;20029;-78
2023/09/30 09:02:39;;;;;;;35.20;7.18;;;;;;;26.55;35.43;100808.16;5050556;28;20527;-78
2023/09/30 09:05:06;;;;;;;38.58;7.75;;;;;;;26.67;35.31;100786.19;5049987;28;20104;-77
2023/09/30 09:07:33;;;;;;;27.08;7.90;;;;;;;26.90;35.23;100769.88;5050214;28;20041;-78
2023/09/30 09:10:05;;;;;;;46.67;8.32;;;;;;;27.10;34.84;100797.25;4998256;28;20537;-77
2023/09/30 09:12:32;;;;;;;21.55;7.38;;;;;;;27.21;34.43;100794.59;5050565;28;20120;-78
2023/09/30 09:14:57;;;;;;;24.20;6.55;;;;;;;27.14;34.22;100771.72;5031558;28;20044;-78
2023/09/30 09:17:22;;;;;;;31.00;7.22;;;;;;;27.36;34.00;100802.50;5051339;28;20025;-77
2023/09/30 09:20:00;;;;;;;49.78;7.43;;;;;;;27.25;34.41;100795.81;5056694;28;20078;-78
2023/09/30 09:22:38;;;;;;;43.38;6.82;;;;;;;26.95;34.70;100800.38;5059859;28;20033;-77
2023/09/30 09:25:04;;;;;;;34.33;7.53;;;;;;;26.80;34.72;100770.41;5062166;28;20126;-77
2023/09/30 09:27:34;;;;;;;23.45;6.47;;;;;;;26.92;34.25;100796.19;5061545;28;20063;-79
2023/09/30 09:30:21;;;;;;;19.00;7.97;;;;;;;26.78;34.41;100780.78;5046190;28;20120;-78
2023/09/30 09:32:55;;;;;;;56.13;10.30;;;;;;;26.80;34.79;100786.94;5053697;28;20102;-77
2023/09/30 09:35:22;;;;;;;38.75;8.38;;;;;;;27.01;34.94;100772.72;5053218;28;20041;-78
2023/09/30 09:38:07;;;;;;;33.45;6.18;;;;;;;27.10;34.59;100788.97;5052140;28;20032;-77
2023/09/30 09:40:33;;;;;;;35.10;9.27;;;;;;;27.06;34.70;100776.72;5052336;28;20021;-77
2023/09/30 09:43:02;;;;;;;26.63;7.28;;;;;;;27.13;34.54;100783.00;5049892;28;20057;-77
2023/09/30 09:45:28;;;;;;;25.05;6.72;;;;;;;27.13;34.82;100774.72;5049360;28;20033;-77
2023/09/30 09:47:54;;;;;;;18.60;6.88;;;;;;;27.23;34.68;100777.78;4997660;28;20044;-77
2023/09/30 09:50:22;;;;;;;19.77;7.22;;;;;;;27.39;35.13;100768.91;5049956;28;20051;-77
2023/09/30 09:52:54;;;;;;;23.55;6.57;;;;;;;27.45;34.83;100776.28;5049815;28;20404;-77
2023/09/30 09:55:23;;;;;;;18.93;7.07;;;;;;;27.38;34.65;100739.56;5050297;28;20021;-76
2023/09/30 09:57:50;;;;;;;50.53;9.88;;;;;;;27.45;34.90;100779.06;5048973;28;20032;-77
2023/09/30 10:00:21;;;;;;;29.60;7.05;;;;;;;27.44;34.40;100775.44;5049110;28;20029;-80
2023/09/30 10:02:47;;;;;;;34.77;7.73;;;;;;;27.40;33.70;100765.88;5049566;28;20033;-79
2023/09/30 10:05:14;;;;;;;17.20;5.82;;;;;;;27.27;33.49;100771.59;5050130;28;20025;-79
2023/09/30 10:08:08;;;;;;;43.83;7.40;;;;;;;27.19;34.24;100780.16;5049392;28;20048;-77
2023/09/30 10:10:37;;;;;;;49.30;10.35;;;;;;;27.27;33.97;100776.28;4948598;29;20073;-79
2023/09/30 10:13:03;;;;;;;53.28;7.55;;;;;;;27.27;34.02;100770.75;4948730;29;20084;-78
2023/09/30 10:15:29;;;;;;;27.65;6.80;;;;;;;27.20;34.99;100769.97;4948897;29;20039;-76
2023/09/30 10:17:59;;;;;;;39.75;7.43;;;;;;;26.99;35.09;100741.75;4957831;28;20031;-78
2023/09/30 10:20:29;;;;;;;34.47;8.25;;;;;;;27.16;35.40;100735.59;4967950;28;20557;-78
2023/09/30 10:23:17;;;;;;;40.75;7.43;;;;;;;27.24;33.78;100776.72;4967561;28;20050;-77
2023/09/30 10:25:49;;;;;;;14.60;5.55;;;;;;;27.18;33.68;100767.44;4910526;29;20039;-78
2023/09/30 10:28:33;;;;;;;24.08;6.85;;;;;;;27.16;33.83;100761.28;4910150;29;20070;-76
2023/09/30 10:31:19;;;;;;;42.00;8.45;;;;;;;27.16;33.67;100764.06;4910587;29;20043;-78
2023/09/30 10:33:59;;;;;;;36.97;7.38;;;;;;;27.29;34.43;100757.53;4910437;29;20043;-78
2023/09/30 10:36:39;;;;;;;38.25;7.72;;;;;;;27.40;34.40;100759.53;4910438;29;20052;-77
2023/09/30 10:39:08;;;;;;;38.47;8.43;;;;;;;27.30;34.17;100750.94;4910915;29;20512;-78
2023/09/30 10:41:45;;;;;;;32.25;7.95;;;;;;;27.32;33.96;100746.88;4910362;29;20128;-78
2023/09/30 10:44:26;;;;;;;23.75;6.45;;;;;;;27.43;34.14;100759.13;4910553;29;20060;-78
2023/09/30 10:46:52;;;;;;;31.52;6.97;;;;;;;27.66;33.55;100753.69;4922763;28;20043;-78
2023/09/30 10:49:24;;;;;;;25.27;7.28;;;;;;;27.73;33.67;100751.69;4967932;28;20550;-78
2023/09/30 10:51:56;;;;;;;31.10;7.32;;;;;;;27.69;34.22;100742.16;4968067;28;20063;-79
2023/09/30 10:54:27;;;;;;;27.92;8.10;;;;;;;27.74;34.47;100744.22;4967652;28;20035;-77
2023/09/30 10:56:53;;;;;;;34.85;8.30;;;;;;;27.74;34.54;100711.91;4967746;28;20058;-77
2023/09/30 10:59:31;;;;;;;37.95;8.13;;;;;;;27.81;34.88;100720.09;4967935;28;20118;-76
2023/09/30 11:01:57;;;;;;;25.60;8.32;;;;;;;27.95;34.42;100739.00;4976708;28;20117;-78
2023/09/30 11:04:23;;;;;;;57.63;9.30;;;;;;;27.80;34.49;100721.16;5028704;28;20059;-77
2023/09/30 11:06:51;;;;;;;29.60;8.18;;;;;;;27.92;34.45;100736.72;5028496;28;20489;-78
2023/09/30 11:09:19;;;;;;;30.98;7.72;;;;;;;27.96;34.66;100735.19;5031606;28;20056;-78
2023/09/30 11:11:49;;;;;;;32.13;7.78;;;;;;;27.99;35.00;100722.78;5032270;28;20103;-77
2023/09/30 11:14:31;;;;;;;28.92;8.40;;;;;;;28.05;35.52;100736.56;5032631;28;20156;-79
2023/09/30 11:17:03;;;;;;;45.67;9.65;;;;;;;28.07;36.18;100736.34;5033662;28;20116;-78